Time;durP1;ratioP1;P1;durP2;ratioP2;P2;SDS_P1;SDS_P2;PMS_P1;PMS_P2;Temp;Humidity;BMP_temperature;BMP_pressure;BME280_temperature;BME280_humidity;BME280_pressure;Samples;Min_cycle;Max_cycle;Signal;HPM_P1;HPM_P2
2023/11/20 05:31:52;;;;;;;0.10;0.10;;;10.60;86.40;;;;;;5308908;23;20128;-85
2023/11/20 05:34:17;;;;;;;0.10;0.10;;;10.60;86.50;;;;;;5032682;28;20053;-85
2023/11/20 05:36:43;;;;;;;0.15;0.15;;;10.60;86.70;;;;;;5037817;28;20029;-85
2023/11/20 05:39:09;;;;;;;0.10;0.10;;;10.60;86.60;;;;;;5020475;28;20026;-85
2023/11/20 05:41:34;;;;;;;0.08;0.08;;;10.60;86.60;;;;;;5005846;28;20026;-87
2023/11/20 05:44:00;;;;;;;0.10;0.10;;;10.60;86.50;;;;;;5018430;28;20030;-87
2023/11/20 05:46:25;;;;;;;0.10;0.10;;;10.60;86.60;;;;;;5037889;28;20026;-87
2023/11/20 05:48:51;;;;;;;0.10;0.10;;;10.50;86.50;;;;;;5037819;28;20024;-86
2023/11/20 05:51:20;;;;;;;0.10;0.10;;;10.50;86.80;;;;;;5037515;28;20022;-85
2023/11/20 05:53:46;;;;;;;0.10;0.10;;;10.50;86.60;;;;;;5037821;28;20496;-83
2023/11/20 05:56:12;;;;;;;0.20;0.20;;;10.50;86.70;;;;;;5037560;28;20833;-85
2023/11/20 05:58:38;;;;;;;0.10;0.10;;;10.50;86.80;;;;;;5037259;28;20420;-83
2023/11/20 06:01:04;;;;;;;0.10;0.10;;;10.50;86.70;;;;;;5018846;28;20037;-79
2023/11/20 06:03:29;;;;;;;0.10;0.10;;;10.50;86.70;;;;;;5010641;28;20037;-79
2023/11/20 06:05:55;;;;;;;0.10;0.10;;;10.50;86.60;;;;;;5017485;28;20030;-79
2023/11/20 06:08:21;;;;;;;0.10;0.10;;;10.50;86.60;;;;;;5018759;28;20026;-80
2023/11/20 06:10:46;;;;;;;0.10;0.10;;;10.50;86.50;;;;;;5020106;28;20025;-80
2023/11/20 06:13:12;;;;;;;0.10;0.10;;;10.50;86.50;;;;;;5016286;28;20067;-78
2023/11/20 06:15:38;;;;;;;0.10;0.10;;;10.50;86.40;;;;;;5021305;28;20492;-79
2023/11/20 06:18:04;;;;;;;0.10;0.10;;;10.50;86.40;;;;;;5019630;28;20030;-81
2023/11/20 06:20:31;;;;;;;0.10;0.10;;;10.60;86.30;;;;;;5037183;28;20057;-79
2023/11/20 06:22:56;;;;;;;0.10;0.10;;;10.50;86.20;;;;;;5036663;28;20025;-79
2023/11/20 06:25:22;;;;;;;0.10;0.10;;;10.60;86.00;;;;;;5036647;28;20032;-78
2023/11/20 06:27:47;;;;;;;0.10;0.10;;;10.50;86.10;;;;;;5037271;28;20030;-78
2023/11/20 06:30:13;;;;;;;0.10;0.10;;;10.40;85.90;;;;;;5019585;28;20029;-78
2023/11/20 06:32:39;;;;;;;0.10;0.10;;;10.40;86.30;;;;;;5036356;28;20104;-78
2023/11/20 06:35:05;;;;;;;0.10;0.10;;;10.40;86.20;;;;;;5018096;28;20117;-78
2023/11/20 06:37:31;;;;;;;0.10;0.10;;;10.40;86.10;;;;;;5037017;28;20033;-77
2023/11/20 06:39:56;;;;;;;0.10;0.10;;;10.40;86.20;;;;;;5037226;28;20070;-82
2023/11/20 06:42:22;;;;;;;0.10;0.10;;;10.50;86.10;;;;;;5036468;28;20112;-79
2023/11/20 06:44:48;;;;;;;0.10;0.10;;;10.40;86.00;;;;;;5019254;28;20120;-80
2023/11/20 06:47:14;;;;;;;0.10;0.10;;;10.40;86.10;;;;;;5037087;28;20025;-81
2023/11/20 06:49:41;;;;;;;0.10;0.10;;;10.40;85.90;;;;;;5033247;28;20022;-80
2023/11/20 06:52:07;;;;;;;0.10;0.10;;;10.40;85.70;;;;;;5033490;28;20021;-80
2023/11/20 06:54:32;;;;;;;0.10;0.10;;;10.40;85.80;;;;;;5034496;28;20024;-81
2023/11/20 06:56:58;;;;;;;0.10;0.10;;;10.40;85.90;;;;;;5018545;28;20024;-80
2023/11/20 06:59:26;;;;;;;0.10;0.10;;;10.40;85.90;;;;;;5034298;28;20021;-80
2023/11/20 07:01:52;;;;;;;0.10;0.10;;;10.40;85.70;;;;;;5016256;28;20029;-80
2023/11/20 07:04:18;;;;;;;0.10;0.10;;;10.40;85.80;;;;;;5033984;28;20026;-80
2023/11/20 07:06:43;;;;;;;0.10;0.10;;;10.30;85.80;;;;;;5017540;28;20079;-80
2023/11/20 07:09:14;;;;;;;0.10;0.10;;;10.30;85.60;;;;;;5017063;28;20025;-80
2023/11/20 07:11:41;;;;;;;0.10;0.10;;;10.30;85.80;;;;;;5016888;28;20053;-80
2023/11/20 07:14:08;;;;;;;0.10;0.10;;;10.30;85.90;;;;;;5015264;28;20112;-80
2023/11/20 07:16:40;;;;;;;0.10;0.10;;;10.30;85.90;;;;;;5018673;28;20022;-80
2023/11/20 07:19:06;;;;;;;0.10;0.10;;;10.30;85.80;;;;;;5018727;28;20087;-80
2023/11/20 07:21:32;;;;;;;0.10;0.10;;;10.30;85.50;;;;;;5035716;28;20079;-80
2023/11/20 07:23:58;;;;;;;0.10;0.10;;;10.30;85.60;;;;;;5018799;28;20029;-79
2023/11/20 07:26:25;;;;;;;0.10;0.10;;;10.30;85.60;;;;;;5018618;28;20037;-79
2023/11/20 07:28:51;;;;;;;0.10;0.10;;;10.30;85.70;;;;;;5018544;28;20057;-79
2023/11/20 07:31:27;;;;;;;0.10;0.10;;;10.30;85.60;;;;;;5036288;28;20564;-79
2023/11/20 07:33:52;;;;;;;0.10;0.10;;;10.30;85.50;;;;;;5036600;28;20108;-79
2023/11/20 07:36:18;;;;;;;0.10;0.10;;;10.30;85.40;;;;;;5035983;28;20049;-79
2023/11/20 07:38:44;;;;;;;0.10;0.10;;;10.30;85.30;;;;;;5036739;28;20100;-79
2023/11/20 07:41:11;;;;;;;0.17;0.17;;;10.30;85.30;;;;;;5036324;28;20030;-79
2023/11/20 07:43:38;;;;;;;0.10;0.10;;;10.30;85.40;;;;;;5018830;28;20079;-79
2023/11/20 07:46:04;;;;;;;0.10;0.10;;;10.30;85.30;;;;;;5018205;28;20036;-79
2023/11/20 07:48:32;;;;;;;0.15;0.15;;;10.30;85.20;;;;;;5018736;28;20052;-79
2023/11/20 07:51:00;;;;;;;0.10;0.10;;;10.30;85.10;;;;;;5017679;28;20091;-79
2023/11/20 07:53:26;;;;;;;0.13;0.13;;;10.30;85.00;;;;;;5036342;28;20471;-79
2023/11/20 07:55:52;;;;;;;0.10;0.10;;;10.30;84.70;;;;;;5018743;28;20025;-79
2023/11/20 07:58:18;;;;;;;0.10;0.10;;;10.30;84.50;;;;;;5035664;28;20056;-79
2023/11/20 08:00:44;;;;;;;0.10;0.10;;;10.30;84.60;;;;;;5036368;28;20018;-79
2023/11/20 08:03:09;;;;;;;0.10;0.10;;;10.40;84.60;;;;;;5036299;28;20028;-79
2023/11/20 08:05:35;;;;;;;0.10;0.10;;;10.40;84.20;;;;;;5017737;28;20160;-79
2023/11/20 08:08:01;;;;;;;0.10;0.10;;;10.40;84.30;;;;;;5036206;28;20148;-79
2023/11/20 08:10:26;;;;;;;0.10;0.10;;;10.40;84.50;;;;;;5011724;28;20118;-79
2023/11/20 08:12:52;;;;;;;0.10;0.10;;;10.50;84.30;;;;;;4998963;28;20033;-79
2023/11/20 08:15:18;;;;;;;0.10;0.10;;;10.50;84.20;;;;;;5022769;28;20041;-79
2023/11/20 08:17:44;;;;;;;0.10;0.10;;;10.50;84.10;;;;;;5037226;28;20509;-79
2023/11/20 08:20:10;;;;;;;0.10;0.10;;;10.50;84.00;;;;;;5039775;28;20104;-79
2023/11/20 08:22:39;;;;;;;0.10;0.10;;;10.60;83.80;;;;;;5022167;28;20056;-79
2023/11/20 08:25:05;;;;;;;0.10;0.10;;;10.60;83.70;;;;;;5021662;28;20034;-79
2023/11/20 08:27:31;;;;;;;0.10;0.10;;;10.60;83.40;;;;;;5039709;28;20021;-79
2023/11/20 08:29:57;;;;;;;0.10;0.10;;;10.70;83.40;;;;;;5021652;28;20070;-79
2023/11/20 08:32:24;;;;;;;0.10;0.10;;;10.70;83.40;;;;;;5039500;28;20041;-79
2023/11/20 08:34:50;;;;;;;0.10;0.10;;;10.70;83.30;;;;;;5038940;28;20033;-79
2023/11/20 08:37:15;;;;;;;0.10;0.10;;;10.70;83.10;;;;;;5020834;28;20037;-79
2023/11/20 08:39:43;;;;;;;0.10;0.10;;;10.70;82.80;;;;;;5021515;28;20031;-79
2023/11/20 08:42:09;;;;;;;0.10;0.10;;;10.80;82.80;;;;;;5021715;28;20123;-79
2023/11/20 08:44:34;;;;;;;0.10;0.10;;;10.90;82.60;;;;;;5038878;28;20064;-79
2023/11/20 08:47:00;;;;;;;0.10;0.10;;;10.90;82.50;;;;;;5039228;28;20068;-79
2023/11/20 08:49:29;;;;;;;0.10;0.10;;;10.90;82.40;;;;;;5021733;28;20017;-78
2023/11/20 08:51:54;;;;;;;0.15;0.15;;;11.00;82.20;;;;;;5039627;28;20029;-79
2023/11/20 08:54:20;;;;;;;0.10;0.10;;;11.10;82.00;;;;;;5038772;28;20021;-79
2023/11/20 08:56:46;;;;;;;0.22;0.22;;;11.30;81.20;;;;;;5038648;28;20034;-79
2023/11/20 08:59:12;;;;;;;0.10;0.10;;;11.50;81.30;;;;;;5025100;28;20120;-79
2023/11/20 09:01:39;;;;;;;0.13;0.13;;;11.60;81.10;;;;;;5019462;28;20026;-79
2023/11/20 09:04:05;;;;;;;0.20;0.20;;;11.70;80.60;;;;;;5009793;28;20040;-79
2023/11/20 09:06:31;;;;;;;0.10;0.10;;;11.80;80.30;;;;;;5020097;28;20076;-79
2023/11/20 09:08:57;;;;;;;0.10;0.10;;;11.80;80.60;;;;;;5021279;28;20053;-79
2023/11/20 09:11:23;;;;;;;0.10;0.10;;;11.80;80.10;;;;;;5028126;28;20030;-79
2023/11/20 09:13:51;;;;;;;0.10;0.10;;;11.80;79.70;;;;;;5039264;28;20479;-79
2023/11/20 09:16:16;;;;;;;0.10;0.10;;;11.80;79.50;;;;;;5038562;28;20087;-79
2023/11/20 09:18:42;;;;;;;0.10;0.10;;;11.70;79.60;;;;;;5021386;28;20474;-79
2023/11/20 09:21:08;;;;;;;0.10;0.10;;;11.80;79.60;;;;;;5038373;28;20083;-79
2023/11/20 09:23:33;;;;;;;0.10;0.10;;;11.80;79.30;;;;;;5021248;28;20022;-79
2023/11/20 09:25:59;;;;;;;0.10;0.10;;;11.90;79.10;;;;;;5038325;28;20021;-79
2023/11/20 09:28:25;;;;;;;0.13;0.13;;;12.00;79.30;;;;;;5038732;28;20018;-79
2023/11/20 09:30:50;;;;;;;0.10;0.10;;;12.10;78.80;;;;;;5037318;28;20068;-79
2023/11/20 09:33:16;;;;;;;0.10;0.10;;;12.20;78.60;;;;;;5038346;28;20035;-79
2023/11/20 09:35:42;;;;;;;0.20;0.20;;;12.30;78.70;;;;;;5037429;28;20571;-79
2023/11/20 09:38:09;;;;;;;0.10;0.10;;;12.30;78.60;;;;;;5037873;28;20022;-79
2023/11/20 09:40:35;;;;;;;0.13;0.13;;;12.30;78.50;;;;;;5020746;28;20116;-79
2023/11/20 09:43:02;;;;;;;0.10;0.10;;;12.30;78.10;;;;;;5038215;28;20064;-79
2023/11/20 09:45:28;;;;;;;0.10;0.10;;;12.40;77.90;;;;;;5038209;28;20036;-80
2023/11/20 09:47:58;;;;;;;0.10;0.10;;;12.40;77.80;;;;;;5020156;28;20089;-80
2023/11/20 09:50:28;;;;;;;0.13;0.13;;;12.40;77.60;;;;;;5038226;28;20029;-80
2023/11/20 09:52:58;;;;;;;0.20;0.20;;;12.40;77.80;;;;;;5020408;28;20021;-79
2023/11/20 09:55:25;;;;;;;0.20;0.20;;;12.50;77.80;;;;;;5019673;28;20063;-79
2023/11/20 09:57:51;;;;;;;0.10;0.10;;;12.70;77.70;;;;;;5020471;28;20092;-79
2023/11/20 10:00:17;;;;;;;0.10;0.10;;;12.80;77.60;;;;;;5020057;28;20030;-80
2023/11/20 10:02:46;;;;;;;0.10;0.10;;;13.00;77.30;;;;;;5019804;28;20037;-80
2023/11/20 10:05:22;;;;;;;0.10;0.10;;;13.10;77.00;;;;;;5037589;28;20084;-80
2023/11/20 10:07:50;;;;;;;0.10;0.10;;;13.20;76.90;;;;;;5020107;28;20444;-80
2023/11/20 10:10:17;;;;;;;0.10;0.10;;;13.30;76.40;;;;;;5018994;28;20025;-80
2023/11/20 10:12:46;;;;;;;0.10;0.10;;;13.50;76.10;;;;;;5019782;28;20021;-79
2023/11/20 10:15:14;;;;;;;0.10;0.10;;;13.70;76.00;;;;;;5020171;28;20025;-79
2023/11/20 10:17:40;;;;;;;0.10;0.10;;;13.60;75.50;;;;;;5036782;28;20056;-79
2023/11/20 10:20:09;;;;;;;0.15;0.15;;;13.50;75.50;;;;;;5019065;28;20029;-79
2023/11/20 10:22:36;;;;;;;0.10;0.10;;;13.50;75.60;;;;;;5036954;28;20034;-79
2023/11/20 10:25:06;;;;;;;0.10;0.10;;;13.50;75.50;;;;;;5037477;28;20032;-80
2023/11/20 10:27:32;;;;;;;0.10;0.10;;;13.50;75.40;;;;;;5037081;28;20030;-80
2023/11/20 10:29:58;;;;;;;0.10;0.10;;;13.50;75.00;;;;;;5019356;28;20052;-79
2023/11/20 10:32:27;;;;;;;0.10;0.10;;;13.50;75.60;;;;;;5036935;28;20045;-80
2023/11/20 10:35:14;;;;;;;0.10;0.10;;;13.40;75.60;;;;;;5019739;28;20059;-79
2023/11/20 10:38:03;;;;;;;0.10;0.10;;;13.40;75.80;;;;;;5036853;28;20037;-80
2023/11/20 10:40:29;;;;;;;0.10;0.10;;;13.50;75.30;;;;;;5037187;28;20534;-80
2023/11/20 10:42:57;;;;;;;0.10;0.10;;;13.60;75.30;;;;;;5019267;28;20029;-80
2023/11/20 10:45:23;;;;;;;0.10;0.10;;;13.50;75.20;;;;;;5036682;28;20036;-80
2023/11/20 10:47:49;;;;;;;0.13;0.10;;;13.50;75.30;;;;;;5037193;28;20075;-79
2023/11/20 10:50:17;;;;;;;0.10;0.10;;;13.60;75.30;;;;;;5037091;28;20086;-80
2023/11/20 10:52:44;;;;;;;0.10;0.10;;;13.60;75.00;;;;;;5036512;28;20025;-80
2023/11/20 10:55:20;;;;;;;0.10;0.10;;;13.60;74.90;;;;;;5019471;28;20040;-80
2023/11/20 10:57:48;;;;;;;0.10;0.10;;;13.60;75.10;;;;;;5019236;28;20021;-80
2023/11/20 11:00:15;;;;;;;0.10;0.10;;;13.50;74.80;;;;;;5018491;28;20033;-80
2023/11/20 11:02:42;;;;;;;0.10;0.10;;;13.60;75.20;;;;;;5025072;28;20026;-79
2023/11/20 11:05:10;;;;;;;0.10;0.10;;;13.50;75.00;;;;;;5009618;28;20061;-80
2023/11/20 11:07:40;;;;;;;0.10;0.10;;;13.60;75.10;;;;;;5017290;28;20165;-80
2023/11/20 11:10:14;;;;;;;0.10;0.10;;;13.50;75.10;;;;;;4999705;28;20060;-80
2023/11/20 11:12:44;;;;;;;0.10;0.10;;;13.60;75.40;;;;;;5014213;28;20121;-80
2023/11/20 11:15:14;;;;;;;0.10;0.10;;;13.70;75.30;;;;;;5019338;28;20029;-80
2023/11/20 11:17:56;;;;;;;0.10;0.10;;;13.70;74.80;;;;;;5036105;28;20029;-80
2023/11/20 11:20:29;;;;;;;0.10;0.10;;;13.70;74.60;;;;;;5016749;28;20523;-80
2023/11/20 11:22:58;;;;;;;0.10;0.10;;;13.70;74.60;;;;;;5019118;28;20501;-80
2023/11/20 11:25:29;;;;;;;0.10;0.10;;;13.70;74.40;;;;;;5036821;28;20033;-79
2023/11/20 11:27:58;;;;;;;0.10;0.10;;;13.70;74.00;;;;;;5019152;28;20036;-80
2023/11/20 11:30:34;;;;;;;0.10;0.10;;;13.80;74.10;;;;;;5035745;28;20033;-80
2023/11/20 11:33:22;;;;;;;0.10;0.10;;;13.80;73.90;;;;;;5036021;28;20021;-80
2023/11/20 11:36:12;;;;;;;0.10;0.10;;;13.80;74.20;;;;;;5018958;28;20421;-80
2023/11/20 11:38:56;;;;;;;0.10;0.10;;;13.90;74.30;;;;;;5018839;28;20088;-80
2023/11/20 11:41:53;;;;;;;0.10;0.10;;;14.00;74.00;;;;;;5014878;28;20025;-80
2023/11/20 11:44:27;;;;;;;0.10;0.10;;;14.20;73.90;;;;;;4993339;28;20065;-80
2023/11/20 11:46:55;;;;;;;0.10;0.10;;;14.30;73.30;;;;;;5017057;28;20358;-80
2023/11/20 11:49:22;;;;;;;0.10;0.10;;;14.20;73.80;;;;;;5016621;28;20029;-80
2023/11/20 11:51:49;;;;;;;0.10;0.10;;;14.10;73.50;;;;;;5018148;28;20029;-80
2023/11/20 11:54:15;;;;;;;0.10;0.10;;;14.20;73.80;;;;;;5040476;28;20063;-79
2023/11/20 11:56:53;;;;;;;0.10;0.10;;;14.20;74.10;;;;;;5039953;28;20108;-80
2023/11/20 11:59:39;;;;;;;0.10;0.10;;;14.20;73.80;;;;;;5040160;28;20385;-80
2023/11/20 12:02:06;;;;;;;0.10;0.10;;;14.20;73.90;;;;;;5039447;28;20041;-80
2023/11/20 12:04:56;;;;;;;0.10;0.10;;;14.20;74.10;;;;;;5022581;28;20100;-80
2023/11/20 12:07:40;;;;;;;0.10;0.10;;;14.20;74.30;;;;;;5022443;28;20025;-80
2023/11/20 12:10:13;;;;;;;0.10;0.10;;;14.20;74.40;;;;;;5040244;28;20025;-80
2023/11/20 12:12:48;;;;;;;0.10;0.10;;;14.30;74.50;;;;;;5039519;28;20105;-80
2023/11/20 12:15:38;;;;;;;0.10;0.10;;;14.20;74.20;;;;;;5019755;28;20024;-80
2023/11/20 12:18:14;;;;;;;0.10;0.10;;;14.30;74.40;;;;;;5019935;28;20057;-80
2023/11/20 12:20:52;;;;;;;0.10;0.10;;;14.30;74.20;;;;;;5029791;28;20052;-80
2023/11/20 12:23:45;;;;;;;0.10;0.10;;;14.30;74.90;;;;;;5039605;28;20034;-80
2023/11/20 12:26:12;;;;;;;0.10;0.10;;;14.40;74.70;;;;;;5021942;28;20041;-80
2023/11/20 12:28:40;;;;;;;0.10;0.10;;;14.50;74.20;;;;;;5021425;28;20030;-80
2023/11/20 12:31:10;;;;;;;0.10;0.10;;;14.50;74.50;;;;;;5021768;28;20052;-80
2023/11/20 12:33:47;;;;;;;0.10;0.10;;;14.60;75.10;;;;;;5039622;28;20029;-80
2023/11/20 12:36:13;;;;;;;0.10;0.10;;;14.70;74.60;;;;;;5039325;28;20028;-80
2023/11/20 12:38:44;;;;;;;0.10;0.10;;;14.70;74.30;;;;;;5039239;28;20033;-80
2023/11/20 12:41:10;;;;;;;0.10;0.10;;;14.50;74.60;;;;;;5021686;28;20068;-80
2023/11/20 12:43:37;;;;;;;0.10;0.10;;;14.40;75.00;;;;;;5021982;28;20120;-80
2023/11/20 12:46:06;;;;;;;0.10;0.10;;;14.40;75.10;;;;;;5038983;28;20083;-80
2023/11/20 12:48:36;;;;;;;0.10;0.10;;;14.40;75.00;;;;;;5039479;28;20041;-80
2023/11/20 12:51:02;;;;;;;0.10;0.10;;;14.40;74.70;;;;;;5021609;28;20033;-80
2023/11/20 12:53:28;;;;;;;0.10;0.10;;;14.50;74.80;;;;;;5021421;28;20362;-79
2023/11/20 12:55:55;;;;;;;0.10;0.10;;;14.50;75.00;;;;;;5038734;28;20060;-80
2023/11/20 12:58:21;;;;;;;0.10;0.10;;;14.60;74.90;;;;;;5021581;28;20037;-80
2023/11/20 13:00:48;;;;;;;0.10;0.10;;;14.70;74.60;;;;;;5039197;28;20037;-80
2023/11/20 13:03:16;;;;;;;0.10;0.10;;;14.70;74.60;;;;;;5017115;28;20029;-80
2023/11/20 13:05:50;;;;;;;0.10;0.10;;;14.70;74.60;;;;;;5020708;28;20053;-80
2023/11/20 13:08:17;;;;;;;0.00;0.00;;;14.70;74.70;;;;;;5019411;28;20037;-79
2023/11/20 13:10:52;;;;;;;0.10;0.10;;;14.60;74.80;;;;;;5019285;28;20473;-80
2023/11/20 13:13:21;;;;;;;0.10;0.10;;;14.60;75.10;;;;;;5020425;28;20944;-80
2023/11/20 13:15:49;;;;;;;0.10;0.10;;;14.50;75.20;;;;;;5021131;28;20021;-80
2023/11/20 13:18:16;;;;;;;0.10;0.10;;;14.50;75.40;;;;;;5021023;28;20033;-80
2023/11/20 13:20:47;;;;;;;0.10;0.10;;;14.40;75.50;;;;;;5020614;28;20029;-80
2023/11/20 13:23:28;;;;;;;0.10;0.10;;;14.40;75.80;;;;;;5020957;28;20032;-80
2023/11/20 13:26:17;;;;;;;0.10;0.10;;;14.50;75.80;;;;;;5038220;28;20469;-80
2023/11/20 13:28:43;;;;;;;0.10;0.10;;;14.50;75.90;;;;;;5021122;28;20021;-80
2023/11/20 13:31:09;;;;;;;0.10;0.10;;;14.50;76.00;;;;;;5038598;28;20414;-80
2023/11/20 13:33:37;;;;;;;0.10;0.10;;;14.50;75.80;;;;;;5037731;28;20028;-80
2023/11/20 13:36:05;;;;;;;0.10;0.10;;;14.60;76.20;;;;;;5020734;28;20490;-79
2023/11/20 13:38:31;;;;;;;0.10;0.10;;;14.60;75.90;;;;;;5020412;28;20365;-80
2023/11/20 13:40:58;;;;;;;0.10;0.10;;;14.60;76.20;;;;;;5020682;28;20033;-79
2023/11/20 13:43:25;;;;;;;0.05;0.05;;;14.70;76.00;;;;;;5037679;28;20037;-80
2023/11/20 13:45:58;;;;;;;0.10;0.10;;;14.70;76.00;;;;;;5038304;28;20116;-80
2023/11/20 13:48:25;;;;;;;0.10;0.10;;;14.70;76.00;;;;;;5019769;28;20029;-80
2023/11/20 13:50:52;;;;;;;0.10;0.10;;;14.70;76.10;;;;;;5038229;28;20084;-80
2023/11/20 13:53:21;;;;;;;0.10;0.10;;;14.70;76.20;;;;;;5038022;28;20024;-80
2023/11/20 13:55:48;;;;;;;0.10;0.10;;;14.60;76.20;;;;;;5020499;28;20037;-80
2023/11/20 13:58:15;;;;;;;0.05;0.05;;;14.60;76.50;;;;;;5020208;28;20018;-79
2023/11/20 14:00:41;;;;;;;0.10;0.10;;;14.50;76.30;;;;;;5020500;28;20377;-80
2023/11/20 14:03:07;;;;;;;0.00;0.00;;;14.50;76.50;;;;;;5037181;28;20025;-79
2023/11/20 14:05:33;;;;;;;0.10;0.10;;;14.50;76.90;;;;;;5020483;28;20091;-79
2023/11/20 14:08:00;;;;;;;0.10;0.10;;;14.30;76.90;;;;;;5038060;28;20111;-80
2023/11/20 14:10:27;;;;;;;0.10;0.10;;;14.30;77.30;;;;;;5019180;28;20093;-80
2023/11/20 14:12:53;;;;;;;0.10;0.10;;;14.20;77.40;;;;;;5037735;28;20014;-79
2023/11/20 14:15:19;;;;;;;0.10;0.10;;;14.20;77.40;;;;;;5037238;28;20083;-79
2023/11/20 14:17:48;;;;;;;0.10;0.10;;;14.20;77.80;;;;;;5037866;28;20544;-79
2023/11/20 14:20:16;;;;;;;0.10;0.10;;;14.20;77.80;;;;;;5037685;28;20488;-79
2023/11/20 14:22:44;;;;;;;0.10;0.10;;;14.20;77.90;;;;;;5019220;28;20500;-79
2023/11/20 14:25:10;;;;;;;0.10;0.10;;;14.20;78.00;;;;;;5022720;28;20040;-79
2023/11/20 14:27:37;;;;;;;0.10;0.10;;;14.10;78.10;;;;;;5000166;28;20018;-80
2023/11/20 14:30:07;;;;;;;0.10;0.10;;;14.10;78.40;;;;;;5036431;28;20083;-80
2023/11/20 14:32:33;;;;;;;0.08;0.08;;;14.00;78.60;;;;;;5019852;28;20590;-80
2023/11/20 14:34:59;;;;;;;0.10;0.10;;;14.00;78.80;;;;;;5036626;28;20017;-80
2023/11/20 14:37:28;;;;;;;0.00;0.00;;;14.10;78.90;;;;;;5018447;28;20052;-85
2023/11/20 14:39:54;;;;;;;0.10;0.10;;;14.10;78.80;;;;;;5036709;28;20022;-80
2023/11/20 14:42:20;;;;;;;0.10;0.10;;;14.20;78.80;;;;;;5018793;28;20102;-80
2023/11/20 14:44:46;;;;;;;0.10;0.10;;;14.20;78.70;;;;;;5036738;28;20072;-80
2023/11/20 14:47:12;;;;;;;0.10;0.10;;;14.20;78.60;;;;;;5018998;28;20032;-80
2023/11/20 14:49:37;;;;;;;0.10;0.10;;;14.30;78.40;;;;;;5014462;28;20032;-80
2023/11/20 14:52:03;;;;;;;0.10;0.10;;;14.30;78.40;;;;;;5019169;28;20033;-81
2023/11/20 14:54:29;;;;;;;0.10;0.10;;;14.30;78.60;;;;;;5036504;28;20013;-81
2023/11/20 14:56:54;;;;;;;0.00;0.00;;;14.30;78.80;;;;;;5033669;28;20037;-80
2023/11/20 14:59:20;;;;;;;0.10;0.10;;;14.20;78.90;;;;;;5036163;28;20029;-81
2023/11/20 15:01:46;;;;;;;0.10;0.10;;;14.30;78.90;;;;;;5036737;28;20030;-81
2023/11/20 15:04:11;;;;;;;0.10;0.10;;;14.20;79.00;;;;;;5016986;28;20078;-81
2023/11/20 15:06:37;;;;;;;0.10;0.10;;;14.20;79.10;;;;;;5036663;28;20048;-80
2023/11/20 15:09:04;;;;;;;0.10;0.10;;;14.20;79.20;;;;;;5018019;28;20081;-81
2023/11/20 15:11:30;;;;;;;0.00;0.00;;;14.20;79.20;;;;;;5036718;28;20025;-80
2023/11/20 15:13:56;;;;;;;0.00;0.00;;;14.20;79.20;;;;;;5036467;28;20013;-80
2023/11/20 15:16:21;;;;;;;0.00;0.00;;;14.10;79.40;;;;;;5036133;28;20027;-82
2023/11/20 15:18:47;;;;;;;0.10;0.10;;;14.00;79.80;;;;;;5035819;28;20021;-82
2023/11/20 15:21:13;;;;;;;0.10;0.10;;;14.00;79.90;;;;;;5036658;28;20037;-81
2023/11/20 15:23:38;;;;;;;0.10;0.10;;;14.00;80.10;;;;;;5036651;28;20044;-83
2023/11/20 15:26:04;;;;;;;0.10;0.10;;;14.00;80.40;;;;;;5018580;28;20021;-82
2023/11/20 15:28:30;;;;;;;0.10;0.10;;;14.00;80.60;;;;;;5013416;28;20109;-81
2023/11/20 15:30:55;;;;;;;0.10;0.10;;;13.90;80.80;;;;;;5023269;28;20063;-78
2023/11/20 15:33:21;;;;;;;0.10;0.10;;;14.00;80.90;;;;;;5040001;28;20031;-78
2023/11/20 15:35:47;;;;;;;0.00;0.00;;;13.90;81.00;;;;;;5022951;28;20034;-81
2023/11/20 15:38:13;;;;;;;0.00;0.00;;;13.90;81.20;;;;;;5022995;28;20033;-80
2023/11/20 15:40:39;;;;;;;0.10;0.10;;;14.00;81.50;;;;;;5040847;28;20029;-80
2023/11/20 15:43:05;;;;;;;0.08;0.08;;;13.90;82.10;;;;;;5014883;28;20120;-80
2023/11/20 15:45:31;;;;;;;0.10;0.10;;;13.80;82.70;;;;;;5041366;28;20061;-80
2023/11/20 15:47:57;;;;;;;0.10;0.10;;;13.80;83.10;;;;;;5039702;28;20365;-80
2023/11/20 15:50:25;;;;;;;0.10;0.10;;;13.80;83.30;;;;;;5039582;28;20079;-80
2023/11/20 15:52:51;;;;;;;0.03;0.03;;;13.80;83.50;;;;;;5037025;28;20055;-80
2023/11/20 15:55:17;;;;;;;0.10;0.10;;;13.70;83.60;;;;;;5039369;28;20140;-80
2023/11/20 15:57:45;;;;;;;0.10;0.10;;;13.70;83.80;;;;;;5038820;28;20029;-80
2023/11/20 16:00:14;;;;;;;0.10;0.10;;;13.70;84.00;;;;;;5014239;28;20030;-80
2023/11/20 16:02:40;;;;;;;0.10;0.10;;;13.70;84.20;;;;;;5036547;28;20520;-81
2023/11/20 16:05:08;;;;;;;0.10;0.10;;;13.70;84.30;;;;;;5038843;28;20037;-80
2023/11/20 16:07:33;;;;;;;0.10;0.10;;;13.60;84.50;;;;;;5038641;28;20030;-80
2023/11/20 16:09:59;;;;;;;0.00;0.00;;;13.60;84.70;;;;;;5038588;28;20030;-81
2023/11/20 16:12:25;;;;;;;0.05;0.05;;;13.60;84.80;;;;;;5038863;28;20029;-81
2023/11/20 16:14:53;;;;;;;0.10;0.10;;;13.60;85.10;;;;;;5020908;28;20032;-80
2023/11/20 16:17:19;;;;;;;0.10;0.10;;;13.60;85.30;;;;;;5035701;28;20026;-81
2023/11/20 16:19:45;;;;;;;0.10;0.10;;;13.50;85.40;;;;;;5038493;28;20033;-80
2023/11/20 16:22:10;;;;;;;0.10;0.10;;;13.50;85.50;;;;;;5021081;28;20392;-80
2023/11/20 16:24:36;;;;;;;0.10;0.10;;;13.60;85.50;;;;;;5038360;28;20075;-80
2023/11/20 16:27:02;;;;;;;0.10;0.10;;;13.50;85.60;;;;;;5038071;28;20392;-80
2023/11/20 16:29:28;;;;;;;0.10;0.10;;;13.50;85.70;;;;;;5037177;28;20411;-80
2023/11/20 16:31:57;;;;;;;0.10;0.10;;;13.50;85.80;;;;;;5037664;28;20073;-81
2023/11/20 16:34:24;;;;;;;0.10;0.10;;;13.50;85.80;;;;;;5037818;28;20112;-81
2023/11/20 16:36:50;;;;;;;0.10;0.10;;;13.50;85.90;;;;;;5020373;28;20100;-81
2023/11/20 16:39:16;;;;;;;0.10;0.10;;;13.50;86.00;;;;;;5036863;28;20544;-81
2023/11/20 16:41:42;;;;;;;0.10;0.10;;;13.50;86.00;;;;;;5037407;28;20091;-82
2023/11/20 16:44:08;;;;;;;0.10;0.10;;;13.40;86.00;;;;;;5036947;28;20079;-81
2023/11/20 16:46:34;;;;;;;0.10;0.10;;;13.40;86.30;;;;;;5037898;28;20025;-81
2023/11/20 16:49:00;;;;;;;0.10;0.10;;;13.40;86.20;;;;;;5020334;28;20095;-81
2023/11/20 16:51:26;;;;;;;0.10;0.10;;;13.40;86.50;;;;;;5037440;28;20030;-81
2023/11/20 16:53:52;;;;;;;0.10;0.10;;;13.40;86.50;;;;;;5037936;28;20484;-81
2023/11/20 16:56:17;;;;;;;0.10;0.10;;;13.40;86.50;;;;;;5038227;28;20036;-81
2023/11/20 16:58:46;;;;;;;0.10;0.10;;;13.40;86.50;;;;;;5018934;28;20025;-82
2023/11/20 17:01:11;;;;;;;0.05;0.05;;;13.40;86.50;;;;;;5034550;28;20029;-81
2023/11/20 17:03:37;;;;;;;0.00;0.00;;;13.40;86.60;;;;;;5012680;28;20495;-82
2023/11/20 17:06:06;;;;;;;0.10;0.10;;;13.40;86.60;;;;;;5034323;28;20030;-80
2023/11/20 17:08:32;;;;;;;0.10;0.10;;;13.40;86.60;;;;;;5017357;28;20021;-82
2023/11/20 17:10:58;;;;;;;0.10;0.10;;;13.40;86.60;;;;;;5012133;28;20149;-82
2023/11/20 17:13:24;;;;;;;0.00;0.00;;;13.40;86.80;;;;;;5034222;28;20014;-81
2023/11/20 17:15:50;;;;;;;0.10;0.10;;;13.40;86.80;;;;;;5037980;28;20546;-81
2023/11/20 17:18:15;;;;;;;0.10;0.10;;;13.30;86.80;;;;;;5037667;28;20547;-81
2023/11/20 17:20:41;;;;;;;0.10;0.10;;;13.30;86.90;;;;;;5019087;28;20033;-81
2023/11/20 17:23:07;;;;;;;0.10;0.10;;;13.30;86.90;;;;;;5037197;28;20048;-81
2023/11/20 17:25:33;;;;;;;0.10;0.10;;;13.30;87.00;;;;;;5037325;28;20025;-88
2023/11/20 17:27:58;;;;;;;0.10;0.10;;;13.30;87.00;;;;;;5033735;28;20033;-88
2023/11/20 17:30:24;;;;;;;0.10;0.10;;;13.30;87.00;;;;;;5032978;28;20103;-88
2023/11/20 17:32:50;;;;;;;0.10;0.10;;;13.30;87.00;;;;;;5010289;28;20017;-87
2023/11/20 17:35:20;;;;;;;0.10;0.10;;;13.30;87.10;;;;;;5010722;28;20409;-87
2023/11/20 17:37:47;;;;;;;0.10;0.10;;;13.30;87.20;;;;;;5014038;28;20059;-88
2023/11/20 17:40:13;;;;;;;0.10;0.10;;;13.20;87.40;;;;;;5010212;28;20037;-88
2023/11/20 17:42:39;;;;;;;0.10;0.10;;;13.20;87.50;;;;;;5010477;28;20026;-88
2023/11/20 17:45:06;;;;;;;0.00;0.00;;;13.20;87.60;;;;;;5028742;28;20033;-88
2023/11/20 17:47:31;;;;;;;0.10;0.10;;;13.30;87.70;;;;;;5009159;28;20379;-88
2023/11/20 17:49:57;;;;;;;0.10;0.10;;;13.20;87.60;;;;;;5014426;28;20053;-88
2023/11/20 17:52:22;;;;;;;0.10;0.10;;;13.30;87.60;;;;;;5028276;28;20025;-88
2023/11/20 17:54:51;;;;;;;0.10;0.10;;;13.20;87.70;;;;;;5019710;28;20036;-89
2023/11/20 17:57:17;;;;;;;0.10;0.10;;;13.20;87.70;;;;;;5018209;28;20013;-87
2023/11/20 17:59:43;;;;;;;0.10;0.10;;;13.30;87.70;;;;;;5035115;28;20059;-89
2023/11/20 18:02:09;;;;;;;0.10;0.10;;;13.30;87.60;;;;;;5016725;28;20112;-83
2023/11/20 18:04:38;;;;;;;0.10;0.10;;;13.30;87.70;;;;;;5014483;28;20026;-88
2023/11/20 18:07:05;;;;;;;0.00;0.00;;;13.30;87.70;;;;;;5016583;28;20036;-83
2023/11/20 18:09:30;;;;;;;0.10;0.10;;;13.20;87.70;;;;;;5033870;28;20471;-81
2023/11/20 18:11:56;;;;;;;0.10;0.10;;;13.20;87.70;;;;;;5014479;28;20030;-77
2023/11/20 18:14:22;;;;;;;0.10;0.10;;;13.20;87.70;;;;;;5033811;28;20412;-83
2023/11/20 18:16:47;;;;;;;0.10;0.10;;;13.30;87.80;;;;;;5018929;28;20028;-78
2023/11/20 18:19:13;;;;;;;0.10;0.10;;;13.30;87.70;;;;;;5036114;28;20025;-80
2023/11/20 18:21:39;;;;;;;0.10;0.10;;;13.30;87.70;;;;;;5018027;28;20103;-78